createdAt,value
2023-05-08T00:02:09.754Z,98518.44
2023-05-08T00:04:40.304Z,98513.66
2023-05-08T00:07:10.489Z,98517.09
2023-05-08T00:09:43.027Z,98518.53
2023-05-08T00:12:11.131Z,98522.75
2023-05-08T00:14:39.465Z,98528.16
2023-05-08T00:17:09.074Z,98518.53
2023-05-08T00:19:38.768Z,98520.47
2023-05-08T00:22:07.698Z,98525.41
2023-05-08T00:24:49.388Z,98527.44
2023-05-08T00:27:18.619Z,98517.09
2023-05-08T00:29:50.779Z,98523.22
2023-05-08T00:32:20.694Z,98516.16
2023-05-08T00:34:50.755Z,98515.44
2023-05-08T00:37:18.582Z,98513.31
2023-05-08T00:39:48.829Z,98517.38
2023-05-08T00:42:18.339Z,98515.06
2023-05-08T00:44:47.965Z,98518.25
2023-05-08T00:47:15.941Z,98519.69
2023-05-08T00:49:46.403Z,98522.00
2023-05-08T00:52:16.927Z,98524.53
2023-05-08T00:54:49.728Z,98524.28
2023-05-08T00:57:19.996Z,98525.00
2023-05-08T00:59:52.795Z,98522.25
2023-05-08T01:02:23.231Z,98525.44
2023-05-08T01:04:55.711Z,98535.25
2023-05-08T01:07:28.412Z,98534.09
2023-05-08T01:09:58.111Z,98536.84
2023-05-08T01:12:37.570Z,98542.47
2023-05-08T01:15:17.225Z,98542.41
2023-05-08T01:18:10.710Z,98542.84
2023-05-08T01:20:47.839Z,98547.81
2023-05-08T01:24:01.352Z,98555.22
2023-05-08T01:27:09.785Z,98560.41
2023-05-08T01:30:13.916Z,98559.78
2023-05-08T01:32:48.243Z,98556.06
2023-05-08T01:35:23.056Z,98561.13
2023-05-08T01:38:00.484Z,98561.75
2023-05-08T01:40:42.016Z,98558.06
2023-05-08T01:43:20.134Z,98568.13
2023-05-08T01:45:51.181Z,98564.16
2023-05-08T01:48:28.313Z,98565.63
2023-05-08T01:51:05.942Z,98567.09
2023-05-08T01:53:39.301Z,98563.09
2023-05-08T01:56:16.781Z,98572.16
2023-05-08T01:58:53.811Z,98574.53
2023-05-08T02:01:26.079Z,98578.72
2023-05-08T02:03:56.948Z,98576.59
2023-05-08T02:06:29.030Z,98578.97
2023-05-08T02:09:01.414Z,98577.78
2023-05-08T02:11:32.456Z,98569.09
2023-05-08T02:14:02.075Z,98575.53
2023-05-08T02:16:40.636Z,98573.16
2023-05-08T02:19:12.887Z,98577.81
2023-05-08T02:21:44.892Z,98581.72
2023-05-08T02:24:16.146Z,98583.38
2023-05-08T02:26:47.235Z,98575.00
2023-05-08T02:29:16.909Z,98578.88
2023-05-08T02:31:49.162Z,98580.00
2023-05-08T02:34:22.765Z,98581.53
2023-05-08T02:36:54.228Z,98584.50
2023-05-08T02:39:29.212Z,98583.13
2023-05-08T02:41:58.881Z,98583.88
2023-05-08T02:44:28.184Z,98590.06
2023-05-08T02:47:07.191Z,98589.69
2023-05-08T02:50:00.886Z,98590.16
2023-05-08T02:52:32.001Z,98593.69
2023-05-08T02:55:05.149Z,98589.34
2023-05-08T02:57:41.374Z,98599.28
2023-05-08T03:00:31.349Z,98593.81
2023-05-08T03:03:18.986Z,98586.66
2023-05-08T03:05:55.995Z,98591.00
2023-05-08T03:08:29.769Z,98592.03
2023-05-08T03:11:03.046Z,98592.59
2023-05-08T03:13:34.642Z,98592.94
2023-05-08T03:16:05.498Z,98591.78
2023-05-08T03:18:52.161Z,98600.00
2023-05-08T03:21:26.235Z,98594.06
2023-05-08T03:24:00.939Z,98591.78
2023-05-08T03:26:32.386Z,98591.09
2023-05-08T03:29:03.351Z,98595.25
2023-05-08T03:31:37.580Z,98592.72
2023-05-08T03:34:16.962Z,98596.84
2023-05-08T03:36:55.931Z,98597.41
2023-05-08T03:39:27.035Z,98594.66
2023-05-08T03:41:57.054Z,98592.97
2023-05-08T03:44:26.233Z,98590.44
2023-05-08T03:46:59.555Z,98590.66
2023-05-08T03:49:31.996Z,98596.38
2023-05-08T03:52:02.951Z,98595.38
2023-05-08T03:54:31.985Z,98598.19
2023-05-08T03:57:04.333Z,98599.59
2023-05-08T03:59:44.822Z,98600.03
2023-05-08T04:02:24.922Z,98596.72
2023-05-08T04:05:02.776Z,98601.16
2023-05-08T04:07:38.292Z,98605.47
2023-05-08T04:10:15.432Z,98601.59
2023-05-08T04:12:53.459Z,98606.88
2023-05-08T04:15:30.967Z,98607.06
2023-05-08T04:18:11.317Z,98616.72
2023-05-08T04:20:44.501Z,98620.28
2023-05-08T04:23:20.033Z,98620.88
2023-05-08T04:25:51.682Z,98619.16
2023-05-08T04:28:22.005Z,98630.31
2023-05-08T04:30:52.080Z,98629.19
2023-05-08T04:33:26.253Z,98627.59
2023-05-08T04:35:55.366Z,98623.72
2023-05-08T04:38:25.625Z,98633.19
2023-05-08T04:40:53.997Z,98632.13
2023-05-08T04:43:23.292Z,98626.00
2023-05-08T04:45:53.666Z,98632.50
2023-05-08T04:48:22.726Z,98633.66
2023-05-08T04:50:50.838Z,98636.25
2023-05-08T04:53:20.288Z,98632.59
2023-05-08T04:55:51.087Z,98639.91
2023-05-08T04:58:23.293Z,98641.63
2023-05-08T05:00:54.411Z,98646.06
2023-05-08T05:03:24.418Z,98646.97
2023-05-08T05:06:00.192Z,98646.72
2023-05-08T05:08:32.029Z,98649.47
2023-05-08T05:11:03.468Z,98655.19
2023-05-08T05:13:40.466Z,98650.59
2023-05-08T05:16:13.561Z,98661.13
2023-05-08T05:18:49.815Z,98645.59
2023-05-08T05:21:28.513Z,98651.97
2023-05-08T05:24:03.617Z,98656.53
2023-05-08T05:26:39.784Z,98659.06
2023-05-08T05:29:09.450Z,98661.19
2023-05-08T05:31:40.757Z,98659.28
2023-05-08T05:34:10.961Z,98663.59
2023-05-08T05:36:39.617Z,98654.47
2023-05-08T05:39:10.990Z,98659.97
2023-05-08T05:41:46.462Z,98658.69
2023-05-08T05:44:19.922Z,98656.78
2023-05-08T05:46:48.102Z,98656.22
2023-05-08T05:49:22.031Z,98663.38
2023-05-08T05:51:51.160Z,98662.00
2023-05-08T05:54:19.988Z,98662.22
2023-05-08T05:56:58.020Z,98664.06
2023-05-08T05:59:27.625Z,98667.59
2023-05-08T06:01:55.366Z,98678.19
2023-05-08T06:04:23.153Z,98671.09
2023-05-08T06:06:52.108Z,98677.69
2023-05-08T06:09:21.470Z,98674.53
2023-05-08T06:11:55.591Z,98669.09
2023-05-08T06:14:23.469Z,98669.31
2023-05-08T06:16:54.160Z,98676.84
2023-05-08T06:19:26.954Z,98677.06
2023-05-08T06:21:58.360Z,98669.97
2023-05-08T06:24:28.060Z,98674.78
2023-05-08T06:27:00.027Z,98676.28
2023-05-08T06:29:32.290Z,98673.41
2023-05-08T06:32:03.322Z,98682.16
2023-05-08T06:34:33.794Z,98677.59
2023-05-08T06:37:01.720Z,98687.47
2023-05-08T06:39:30.325Z,98684.91
2023-05-08T06:42:03.503Z,98688.38
2023-05-08T06:44:32.419Z,98690.28
2023-05-08T06:47:00.438Z,98682.38
2023-05-08T06:49:31.111Z,98687.00
2023-05-08T06:51:59.772Z,98683.69
2023-05-08T06:54:27.507Z,98686.44
2023-05-08T06:56:56.766Z,98687.78
2023-05-08T06:59:32.488Z,98680.63
2023-05-08T07:02:04.945Z,98686.00
2023-05-08T07:04:36.825Z,98682.50
2023-05-08T07:07:06.943Z,98677.59
2023-05-08T07:09:40.626Z,98681.06
2023-05-08T07:12:14.152Z,98674.69
2023-05-08T07:14:46.355Z,98680.19
2023-05-08T07:17:16.915Z,98680.19
2023-05-08T07:19:44.631Z,98682.63
2023-05-08T07:22:12.712Z,98683.16
2023-05-08T07:24:40.517Z,98692.72
2023-05-08T07:27:08.416Z,98691.03
2023-05-08T07:29:36.784Z,98682.75
2023-05-08T07:32:08.344Z,98685.00
2023-05-08T07:34:36.224Z,98683.09
2023-05-08T07:37:04.287Z,98683.28
2023-05-08T07:39:32.257Z,98682.13
2023-05-08T07:42:00.276Z,98684.50
2023-05-08T07:44:28.397Z,98684.19
2023-05-08T07:46:56.145Z,98687.56
2023-05-08T07:49:25.380Z,98691.03
2023-05-08T07:51:53.211Z,98687.34
2023-05-08T07:54:20.941Z,98691.31
2023-05-08T07:56:49.023Z,98690.66
2023-05-08T07:59:16.758Z,98677.31
2023-05-08T08:01:47.377Z,98683.41
2023-05-08T08:04:15.619Z,98679.06
2023-05-08T08:06:44.900Z,98686.91
2023-05-08T08:09:12.645Z,98684.16
2023-05-08T08:11:40.910Z,98690.75
2023-05-08T08:14:08.606Z,98685.47
2023-05-08T08:16:36.542Z,98693.56
2023-05-08T08:19:04.753Z,98688.81
2023-05-08T08:21:32.905Z,98683.94
2023-05-08T08:24:02.065Z,98684.75
2023-05-08T08:26:29.689Z,98681.41
2023-05-08T08:28:57.368Z,98677.22
2023-05-08T08:31:25.149Z,98673.97
2023-05-08T08:33:53.080Z,98681.50
2023-05-08T08:36:21.464Z,98675.19
2023-05-08T08:38:49.576Z,98679.63
2023-05-08T08:41:18.871Z,98683.75
2023-05-08T08:43:46.754Z,98679.31
2023-05-08T08:46:15.662Z,98682.06
2023-05-08T08:48:46.630Z,98679.81
2023-05-08T08:51:28.968Z,98674.69
2023-05-08T08:54:06.126Z,98681.63
2023-05-08T08:56:38.081Z,98685.28
2023-05-08T08:59:07.065Z,98684.75
2023-05-08T09:01:36.990Z,98689.72
2023-05-08T09:04:05.447Z,98677.78
2023-05-08T09:06:37.315Z,98681.31
2023-05-08T09:09:06.054Z,98683.03
2023-05-08T09:11:37.276Z,98682.50
2023-05-08T09:14:05.122Z,98682.28
2023-05-08T09:16:33.233Z,98678.06
2023-05-08T09:19:01.767Z,98675.94
2023-05-08T09:21:30.659Z,98679.91
2023-05-08T09:23:59.937Z,98676.44
2023-05-08T09:26:33.565Z,98673.00
2023-05-08T09:29:13.590Z,98672.25
2023-05-08T09:31:43.221Z,98676.53
2023-05-08T09:34:12.561Z,98674.88
2023-05-08T09:36:42.102Z,98673.56
2023-05-08T09:39:12.959Z,98676.28
2023-05-08T09:41:41.256Z,98675.69
2023-05-08T09:44:08.959Z,98678.56
2023-05-08T09:46:38.046Z,98676.09
2023-05-08T09:49:05.789Z,98673.69
2023-05-08T09:51:33.927Z,98679.16
2023-05-08T09:54:05.763Z,98681.13
2023-05-08T09:56:36.139Z,98683.03
2023-05-08T09:59:06.706Z,98673.84
2023-05-08T10:01:36.779Z,98677.50
2023-05-08T10:04:06.672Z,98671.19
2023-05-08T10:06:36.405Z,98686.78
2023-05-08T10:09:12.154Z,98686.53
2023-05-08T10:11:40.991Z,98677.13
2023-05-08T10:14:09.445Z,98677.25
2023-05-08T10:16:41.699Z,98677.63
2023-05-08T10:19:15.043Z,98675.63
2023-05-08T10:21:46.774Z,98666.00
2023-05-08T10:24:17.919Z,98675.78
2023-05-08T10:27:05.718Z,98676.13
2023-05-08T10:29:42.556Z,98684.94
2023-05-08T10:32:11.710Z,98672.16
2023-05-08T10:34:42.569Z,98670.66
2023-05-08T10:37:11.308Z,98677.25
2023-05-08T10:39:41.273Z,98676.53
2023-05-08T10:42:09.379Z,98679.84
2023-05-08T10:44:37.920Z,98674.69
2023-05-08T10:47:12.764Z,98674.00
2023-05-08T10:49:52.781Z,98669.97
2023-05-08T10:52:26.125Z,98667.78
2023-05-08T10:55:24.136Z,98665.41
2023-05-08T10:58:06.898Z,98669.22
2023-05-08T11:01:13.825Z,98663.75
2023-05-08T11:03:43.976Z,98662.53
2023-05-08T11:06:14.325Z,98665.69
2023-05-08T11:08:47.924Z,98666.97
2023-05-08T11:11:24.940Z,98661.41
2023-05-08T11:13:56.569Z,98651.94
2023-05-08T11:17:01.739Z,98652.69
2023-05-08T11:19:30.266Z,98657.44
2023-05-08T11:22:29.114Z,98658.66
2023-05-08T11:24:59.488Z,98652.72
2023-05-08T11:28:13.920Z,98661.38
2023-05-08T11:30:41.657Z,98665.69
2023-05-08T11:33:33.168Z,98656.94
2023-05-08T11:36:02.351Z,98650.03
2023-05-08T11:38:34.255Z,98654.06
2023-05-08T11:41:04.611Z,98645.50
2023-05-08T11:44:09.565Z,98646.84
2023-05-08T11:46:41.571Z,98645.47
2023-05-08T11:49:14.387Z,98642.59
2023-05-08T11:51:45.017Z,98646.94
2023-05-08T11:54:17.563Z,98647.81
2023-05-08T11:56:47.962Z,98652.25
2023-05-08T11:59:17.919Z,98651.03
2023-05-08T12:01:50.851Z,98647.47
2023-05-08T12:04:28.204Z,98651.22
2023-05-08T12:06:59.400Z,98646.84
2023-05-08T12:09:27.703Z,98648.41
2023-05-08T12:11:58.761Z,98641.31
2023-05-08T12:14:27.933Z,98652.31
2023-05-08T12:16:55.888Z,98648.44
2023-05-08T12:19:23.657Z,98649.78
2023-05-08T12:21:51.514Z,98648.59
2023-05-08T12:24:23.165Z,98647.72
2023-05-08T12:26:55.491Z,98650.22
2023-05-08T12:29:24.190Z,98639.59
2023-05-08T12:31:54.430Z,98644.75
2023-05-08T12:34:23.038Z,98646.22
2023-05-08T12:37:02.188Z,98641.47
2023-05-08T12:39:29.906Z,98640.63
2023-05-08T12:42:00.196Z,98639.59
2023-05-08T12:44:31.694Z,98645.50
2023-05-08T12:47:01.496Z,98648.69
2023-05-08T12:49:30.992Z,98647.91
2023-05-08T12:52:03.855Z,98645.59
2023-05-08T12:54:36.267Z,98648.75
2023-05-08T12:57:10.605Z,98652.25
2023-05-08T12:59:38.628Z,98643.97
2023-05-08T13:02:14.092Z,98640.03
2023-05-08T13:04:42.487Z,98636.53
2023-05-08T13:07:10.716Z,98634.13
2023-05-08T13:09:38.478Z,98646.34
2023-05-08T13:12:07.565Z,98632.09
2023-05-08T13:14:35.331Z,98640.41
2023-05-08T13:17:03.098Z,98639.25
2023-05-08T13:19:32.287Z,98630.13
2023-05-08T13:22:00.292Z,98628.13
2023-05-08T13:24:28.017Z,98624.19
2023-05-08T13:26:55.868Z,98624.09
2023-05-08T13:29:24.255Z,98622.63
2023-05-08T13:31:52.087Z,98623.41
2023-05-08T13:34:19.857Z,98616.28
2023-05-08T13:36:48.943Z,98613.09
2023-05-08T13:39:16.680Z,98612.25
2023-05-08T13:41:44.644Z,98613.16
2023-05-08T13:44:12.765Z,98613.94
2023-05-08T13:46:40.422Z,98609.59
2023-05-08T13:49:08.083Z,98611.59
2023-05-08T13:51:35.814Z,98607.59
2023-05-08T13:54:05.017Z,98608.38
2023-05-08T13:56:32.738Z,98604.44
2023-05-08T13:59:00.518Z,98604.44
2023-05-08T14:01:28.712Z,98597.28
2023-05-08T14:03:56.684Z,98599.69
2023-05-08T14:06:24.653Z,98605.19
2023-05-08T14:11:41.462Z,98598.06
2023-05-08T14:12:42.961Z,98601.63
2023-05-08T14:14:09.286Z,98603.59
2023-05-08T14:16:37.665Z,98596.53
2023-05-08T14:19:05.395Z,98604.41
2023-05-08T14:21:34.540Z,98591.78
2023-05-08T14:24:02.312Z,98581.50
2023-05-08T14:26:30.033Z,98589.03
2023-05-08T14:28:59.098Z,98585.06
2023-05-08T14:31:26.918Z,98584.56
2023-05-08T14:33:55.004Z,98575.91
2023-05-08T14:36:22.990Z,98582.22
2023-05-08T14:38:51.224Z,98576.69
2023-05-08T14:41:19.273Z,98579.81
2023-05-08T14:43:47.309Z,98577.41
2023-05-08T14:46:16.466Z,98577.50
2023-05-08T14:48:44.558Z,98571.56
2023-05-08T14:51:14.006Z,98572.78
2023-05-08T14:53:42.196Z,98571.59
2023-05-08T14:56:10.414Z,98571.97
2023-05-08T14:58:38.360Z,98574.75
2023-05-08T15:01:06.491Z,98563.25
2023-05-08T15:03:35.810Z,98577.47
2023-05-08T15:06:04.843Z,98568.03
2023-05-08T15:08:32.648Z,98577.50
2023-05-08T15:11:00.388Z,98567.63
2023-05-08T15:13:28.270Z,98569.50
2023-05-08T15:15:56.021Z,98576.28
2023-05-08T15:18:25.466Z,98575.09
2023-05-08T15:20:54.665Z,98580.63
2023-05-08T15:23:22.447Z,98577.50
2023-05-08T15:25:50.672Z,98572.72
2023-05-08T15:28:19.741Z,98582.63
2023-05-08T15:30:47.849Z,98572.31
2023-05-08T15:33:15.843Z,98578.28
2023-05-08T15:35:43.576Z,98576.34
2023-05-08T15:38:12.788Z,98577.78
2023-05-08T15:40:40.548Z,98577.47
2023-05-08T15:43:08.331Z,98583.75
2023-05-08T15:45:36.766Z,98586.03
2023-05-08T15:48:04.772Z,98578.53
2023-05-08T15:50:32.819Z,98584.78
2023-05-08T15:53:00.670Z,98576.53
2023-05-08T15:55:29.785Z,98570.22
2023-05-08T15:57:57.766Z,98568.66
2023-05-08T16:00:30.155Z,98572.59
2023-05-08T16:03:05.304Z,98571.00
2023-05-08T16:05:33.375Z,98566.28
2023-05-08T16:08:01.606Z,98569.41
2023-05-08T16:10:30.727Z,98560.69
2023-05-08T16:13:00.595Z,98568.41
2023-05-08T16:15:28.679Z,98566.03
2023-05-08T16:17:56.698Z,98566.16
2023-05-08T16:20:25.168Z,98570.88
2023-05-08T16:22:55.149Z,98561.41
2023-05-08T16:25:23.231Z,98562.91
2023-05-08T16:27:53.108Z,98561.31
2023-05-08T16:30:21.057Z,98561.75
2023-05-08T16:32:49.118Z,98561.34
2023-05-08T16:35:18.248Z,98562.19
2023-05-08T16:37:46.505Z,98571.56
2023-05-08T16:40:16.793Z,98570.00
2023-05-08T16:42:44.913Z,98570.59
2023-05-08T16:45:14.708Z,98568.13
2023-05-08T16:47:42.739Z,98564.09
2023-05-08T16:50:11.462Z,98572.69
2023-05-08T16:52:39.181Z,98574.75
2023-05-08T16:55:08.057Z,98576.28
2023-05-08T16:57:35.919Z,98572.69
2023-05-08T17:00:04.191Z,98578.91
2023-05-08T17:02:33.388Z,98572.69
2023-05-08T17:05:01.757Z,98579.38
2023-05-08T17:07:29.473Z,98582.09
2023-05-08T17:09:58.069Z,98583.72
2023-05-08T17:12:28.345Z,98579.81
2023-05-08T17:14:56.970Z,98583.75
2023-05-08T17:17:25.748Z,98587.53
2023-05-08T17:19:54.812Z,98586.28
2023-05-08T17:22:23.025Z,98590.75
2023-05-08T17:24:50.989Z,98581.28
2023-05-08T17:27:20.110Z,98579.56
2023-05-08T17:29:48.110Z,98581.56
2023-05-08T17:32:16.016Z,98582.72
2023-05-08T17:34:44.203Z,98584.66
2023-05-08T17:37:13.721Z,98585.06
2023-05-08T17:39:42.063Z,98582.28
2023-05-08T17:42:10.898Z,98585.00
2023-05-08T17:44:38.810Z,98590.47
2023-05-08T17:47:06.601Z,98589.66
2023-05-08T17:49:34.358Z,98593.53
2023-05-08T17:52:03.364Z,98595.19
2023-05-08T17:54:32.667Z,98595.94
2023-05-08T17:57:00.781Z,98600.69
2023-05-08T17:59:28.994Z,98600.66
2023-05-08T18:01:56.965Z,98610.84
2023-05-08T18:04:26.246Z,98606.91
2023-05-08T18:06:56.402Z,98607.38
2023-05-08T18:09:24.503Z,98598.31
2023-05-08T18:11:55.848Z,98599.53
2023-05-08T18:14:24.305Z,98603.13
2023-05-08T18:16:52.078Z,98600.22
2023-05-08T18:19:19.801Z,98618.69
2023-05-08T18:21:47.873Z,98615.00
2023-05-08T18:24:15.937Z,98620.09
2023-05-08T18:26:47.028Z,98620.84
2023-05-08T18:29:19.352Z,98626.84
2023-05-08T18:31:47.331Z,98626.78
2023-05-08T18:34:16.394Z,98624.72
2023-05-08T18:36:44.307Z,98622.53
2023-05-08T18:39:12.142Z,98626.44
2023-05-08T18:41:39.905Z,98622.84
2023-05-08T18:44:09.305Z,98623.13
2023-05-08T18:46:38.502Z,98621.91
2023-05-08T18:49:06.756Z,98623.13
2023-05-08T18:51:34.514Z,98626.84
2023-05-08T18:54:04.880Z,98625.25
2023-05-08T18:56:37.197Z,98633.50
2023-05-08T18:59:05.058Z,98630.00
2023-05-08T19:01:33.867Z,98628.44
2023-05-08T19:04:04.161Z,98628.84
2023-05-08T19:06:33.168Z,98640.28
2023-05-08T19:09:01.155Z,98636.84
2023-05-08T19:11:29.094Z,98641.09
2023-05-08T19:13:56.834Z,98642.63
2023-05-08T19:16:25.038Z,98640.28
2023-05-08T19:18:52.852Z,98641.28
2023-05-08T19:21:21.907Z,98634.66
2023-05-08T19:23:49.808Z,98641.66
2023-05-08T19:26:20.088Z,98639.38
2023-05-08T19:28:48.030Z,98642.19
2023-05-08T19:31:15.831Z,98641.72
2023-05-08T19:33:43.623Z,98636.75
2023-05-08T19:36:11.615Z,98630.56
2023-05-08T19:38:40.701Z,98631.66
2023-05-08T19:41:08.846Z,98632.84
2023-05-08T19:43:37.212Z,98636.00
2023-05-08T19:46:06.551Z,98637.59
2023-05-08T19:48:36.892Z,98638.22
2023-05-08T19:51:16.310Z,98638.97
2023-05-08T19:53:48.622Z,98643.22
2023-05-08T19:56:16.894Z,98643.66
2023-05-08T19:58:49.654Z,98642.13
2023-05-08T20:01:20.902Z,98646.91
2023-05-08T20:03:49.432Z,98653.75
2023-05-08T20:06:17.531Z,98642.84
2023-05-08T20:08:47.252Z,98649.91
2023-05-08T20:11:17.741Z,98650.56
2023-05-08T20:13:46.150Z,98649.91
2023-05-08T20:16:14.156Z,98650.63
2023-05-08T20:18:41.845Z,98654.53
2023-05-08T20:21:12.102Z,98645.84
2023-05-08T20:23:41.219Z,98651.44
2023-05-08T20:26:10.858Z,98652.88
2023-05-08T20:28:40.923Z,98641.88
2023-05-08T20:31:08.905Z,98641.84
2023-05-08T20:33:36.782Z,98645.78
2023-05-08T20:36:05.112Z,98644.19
2023-05-08T20:38:33.658Z,98647.38
2023-05-08T20:41:01.597Z,98646.94
2023-05-08T20:43:32.110Z,98638.69
2023-05-08T20:46:01.482Z,98643.31
2023-05-08T20:48:29.221Z,98637.88
2023-05-08T20:51:00.534Z,98633.03
2023-05-08T20:53:28.743Z,98627.41
2023-05-08T20:56:01.568Z,98631.75
2023-05-08T20:58:32.610Z,98629.94
2023-05-08T21:01:02.690Z,98640.19
2023-05-08T21:03:31.100Z,98631.22
2023-05-08T21:06:06.482Z,98624.13
2023-05-08T21:08:35.491Z,98624.66
2023-05-08T21:11:08.877Z,98620.19
2023-05-08T21:13:46.006Z,98620.84
2023-05-08T21:16:14.217Z,98609.94
2023-05-08T21:18:45.049Z,98611.38
2023-05-08T21:21:17.355Z,98613.75
2023-05-08T21:23:45.432Z,98611.28
2023-05-08T21:26:13.603Z,98605.00
2023-05-08T21:28:47.758Z,98606.09
2023-05-08T21:31:16.688Z,98610.56
2023-05-08T21:33:47.866Z,98604.06
2023-05-08T21:36:19.231Z,98600.34
2023-05-08T21:38:47.326Z,98601.03
2023-05-08T21:41:17.320Z,98605.19
2023-05-08T21:43:47.933Z,98595.72
2023-05-08T21:46:21.173Z,98588.41
2023-05-08T21:48:49.311Z,98594.13
2023-05-08T21:51:19.821Z,98596.88
2023-05-08T21:53:49.842Z,98595.28
2023-05-08T21:56:20.082Z,98583.97
2023-05-08T21:58:51.611Z,98591.31
2023-05-08T22:01:19.831Z,98583.56
2023-05-08T22:03:49.523Z,98581.22
2023-05-08T22:06:17.913Z,98579.50
2023-05-08T22:08:47.567Z,98569.25
2023-05-08T22:11:15.282Z,98576.81
2023-05-08T22:13:50.361Z,98575.72
2023-05-08T22:16:20.321Z,98578.78
2023-05-08T22:18:49.240Z,98573.91
2023-05-08T22:21:17.383Z,98582.72
2023-05-08T22:23:46.025Z,98571.94
2023-05-08T22:26:16.467Z,98571.16
2023-05-08T22:28:45.623Z,98574.59
2023-05-08T22:31:14.929Z,98584.31
2023-05-08T22:33:46.787Z,98579.97
2023-05-08T22:36:14.875Z,98575.75
2023-05-08T22:38:45.246Z,98577.34
2023-05-08T22:41:17.001Z,98573.31
2023-05-08T22:43:52.096Z,98581.91
2023-05-08T22:46:21.422Z,98585.31
2023-05-08T22:48:55.697Z,98581.91
2023-05-08T22:51:24.273Z,98581.56
2023-05-08T22:53:56.669Z,98569.75
2023-05-08T22:56:25.718Z,98578.66
2023-05-08T22:58:57.531Z,98582.56
2023-05-08T23:01:25.453Z,98578.66
2023-05-08T23:03:59.874Z,98577.94
2023-05-08T23:06:29.681Z,98571.78
2023-05-08T23:09:12.562Z,98575.91
2023-05-08T23:11:42.469Z,98571.72
2023-05-08T23:14:12.846Z,98559.06
2023-05-08T23:16:40.623Z,98558.00
2023-05-08T23:19:17.017Z,98563.25
2023-05-08T23:21:49.635Z,98563.41
2023-05-08T23:24:19.917Z,98564.63
2023-05-08T23:26:52.782Z,98565.19
2023-05-08T23:29:23.319Z,98573.16
2023-05-08T23:31:55.048Z,98569.97
2023-05-08T23:34:31.892Z,98566.16
2023-05-08T23:37:03.211Z,98565.34
2023-05-08T23:39:34.800Z,98557.75
2023-05-08T23:42:06.646Z,98557.47
2023-05-08T23:44:36.152Z,98550.91
2023-05-08T23:47:07.379Z,98551.34
2023-05-08T23:49:39.128Z,98549.59
2023-05-08T23:52:09.534Z,98548.94
2023-05-08T23:54:39.431Z,98540.19
2023-05-08T23:57:09.425Z,98541.44
2023-05-08T23:59:37.586Z,98540.63
